aviador You're here:

SCAR Decoded Metar

ARICA in CHILE
Report Time2018-02-21 04:00:00
UTC Time2018-02-21 04:54:41
Flight Rules vfr VFR
WindCalm
Visibility9000 m
Phenomena:N/A
Clouds:N/A
Expected CloudBase > 2,000 ft AGL from Temp-Dew spread
CeilingNone
Temp21°C (ISA +6)
Dew Point16°C (73% RH)
QNH1014 hPa
Density Alt1,148 ft
Elevation194 ft
Report Wrong Elevation
Raw Report
METAR SCAR 210400Z 00000KT 9000 NSC 21/16 Q1014=

Extra information for SCAR:More info

Metar Taf Metar & Taf Last 4 Metars F.Rules Stats Wind Profile Meteogram Temp Stats Airport Information Weather charts Add Link Nearby VenuesMetar ALERT Operation Metar Decoded Social comments